sensor_id;sensor_type;location;lat;lon;timestamp;P1;durP1;ratioP1;P2;durP2;ratioP2
5414;SDS011;2730;51.512;7.504;2022-11-15T05:33:05;7.38;;;5.65;;
5414;SDS011;2730;51.512;7.504;2022-11-15T05:35:33;8.07;;;5.43;;
5414;SDS011;2730;51.512;7.504;2022-11-15T05:38:04;8.80;;;6.00;;
5414;SDS011;2730;51.512;7.504;2022-11-15T05:40:31;9.80;;;5.95;;
5414;SDS011;2730;51.512;7.504;2022-11-15T05:43:00;5.88;;;4.25;;
5414;SDS011;2730;51.512;7.504;2022-11-15T05:45:30;7.65;;;5.85;;
5414;SDS011;2730;51.512;7.504;2022-11-15T05:47:58;8.88;;;5.97;;
5414;SDS011;2730;51.512;7.504;2022-11-15T05:50:28;12.30;;;5.32;;
5414;SDS011;2730;51.512;7.504;2022-11-15T05:52:55;5.57;;;4.78;;
5414;SDS011;2730;51.512;7.504;2022-11-15T05:55:23;19.33;;;5.53;;
5414;SDS011;2730;51.512;7.504;2022-11-15T05:57:49;6.15;;;5.20;;
5414;SDS011;2730;51.512;7.504;2022-11-15T06:00:17;5.97;;;4.53;;
5414;SDS011;2730;51.512;7.504;2022-11-15T06:02:44;12.90;;;5.50;;
5414;SDS011;2730;51.512;7.504;2022-11-15T06:05:11;6.90;;;5.32;;
5414;SDS011;2730;51.512;7.504;2022-11-15T06:07:39;6.88;;;4.97;;
5414;SDS011;2730;51.512;7.504;2022-11-15T06:10:07;6.38;;;5.13;;
5414;SDS011;2730;51.512;7.504;2022-11-15T06:12:34;7.55;;;5.28;;
5414;SDS011;2730;51.512;7.504;2022-11-15T06:15:01;7.32;;;5.05;;
5414;SDS011;2730;51.512;7.504;2022-11-15T06:17:28;6.20;;;5.47;;
5414;SDS011;2730;51.512;7.504;2022-11-15T06:19:55;8.07;;;5.88;;
5414;SDS011;2730;51.512;7.504;2022-11-15T06:22:22;9.93;;;5.10;;
5414;SDS011;2730;51.512;7.504;2022-11-15T06:24:50;7.65;;;6.55;;
5414;SDS011;2730;51.512;7.504;2022-11-15T06:27:17;8.80;;;5.05;;
5414;SDS011;2730;51.512;7.504;2022-11-15T06:29:44;8.95;;;5.10;;
5414;SDS011;2730;51.512;7.504;2022-11-15T06:32:11;5.13;;;4.57;;
5414;SDS011;2730;51.512;7.504;2022-11-15T06:34:37;5.15;;;4.07;;
5414;SDS011;2730;51.512;7.504;2022-11-15T06:37:04;5.10;;;4.65;;
5414;SDS011;2730;51.512;7.504;2022-11-15T06:39:31;10.15;;;4.20;;
5414;SDS011;2730;51.512;7.504;2022-11-15T06:41:59;4.93;;;4.38;;
5414;SDS011;2730;51.512;7.504;2022-11-15T06:44:26;6.75;;;4.50;;
5414;SDS011;2730;51.512;7.504;2022-11-15T06:46:53;4.53;;;4.10;;
5414;SDS011;2730;51.512;7.504;2022-11-15T06:49:20;5.03;;;4.50;;
5414;SDS011;2730;51.512;7.504;2022-11-15T06:51:47;5.47;;;3.85;;
5414;SDS011;2730;51.512;7.504;2022-11-15T06:54:13;5.47;;;4.10;;
5414;SDS011;2730;51.512;7.504;2022-11-15T06:56:40;4.47;;;3.80;;
5414;SDS011;2730;51.512;7.504;2022-11-15T06:59:08;4.75;;;3.75;;
5414;SDS011;2730;51.512;7.504;2022-11-15T07:01:35;6.97;;;4.22;;
5414;SDS011;2730;51.512;7.504;2022-11-15T07:04:02;4.82;;;3.47;;
5414;SDS011;2730;51.512;7.504;2022-11-15T07:06:29;4.55;;;3.35;;
5414;SDS011;2730;51.512;7.504;2022-11-15T07:08:56;6.60;;;3.47;;
5414;SDS011;2730;51.512;7.504;2022-11-15T07:11:23;4.05;;;2.95;;
5414;SDS011;2730;51.512;7.504;2022-11-15T07:13:49;5.45;;;3.00;;
5414;SDS011;2730;51.512;7.504;2022-11-15T07:16:17;3.70;;;3.08;;
5414;SDS011;2730;51.512;7.504;2022-11-15T07:18:44;4.65;;;3.30;;
5414;SDS011;2730;51.512;7.504;2022-11-15T07:21:11;3.67;;;2.60;;
5414;SDS011;2730;51.512;7.504;2022-11-15T07:23:38;6.05;;;3.17;;
5414;SDS011;2730;51.512;7.504;2022-11-15T07:26:06;2.80;;;2.50;;
5414;SDS011;2730;51.512;7.504;2022-11-15T07:28:33;2.70;;;2.50;;
5414;SDS011;2730;51.512;7.504;2022-11-15T07:31:01;2.72;;;2.45;;
5414;SDS011;2730;51.512;7.504;2022-11-15T07:33:30;4.57;;;2.70;;
5414;SDS011;2730;51.512;7.504;2022-11-15T07:35:58;2.95;;;2.10;;
5414;SDS011;2730;51.512;7.504;2022-11-15T07:38:26;2.42;;;2.33;;
5414;SDS011;2730;51.512;7.504;2022-11-15T07:40:55;2.53;;;2.33;;
5414;SDS011;2730;51.512;7.504;2022-11-15T07:43:23;4.97;;;2.70;;
5414;SDS011;2730;51.512;7.504;2022-11-15T07:45:50;2.78;;;2.33;;
5414;SDS011;2730;51.512;7.504;2022-11-15T07:48:17;2.95;;;2.35;;
5414;SDS011;2730;51.512;7.504;2022-11-15T07:50:45;4.55;;;2.38;;
5414;SDS011;2730;51.512;7.504;2022-11-15T07:53:12;2.60;;;2.40;;
5414;SDS011;2730;51.512;7.504;2022-11-15T07:55:39;2.60;;;2.20;;
5414;SDS011;2730;51.512;7.504;2022-11-15T07:58:07;2.78;;;1.80;;
5414;SDS011;2730;51.512;7.504;2022-11-15T08:00:36;1.63;;;1.52;;
5414;SDS011;2730;51.512;7.504;2022-11-15T08:03:04;1.80;;;1.70;;
5414;SDS011;2730;51.512;7.504;2022-11-15T08:05:31;2.33;;;2.13;;
5414;SDS011;2730;51.512;7.504;2022-11-15T08:08:00;2.33;;;2.17;;
5414;SDS011;2730;51.512;7.504;2022-11-15T08:10:28;2.03;;;1.90;;
5414;SDS011;2730;51.512;7.504;2022-11-15T08:12:59;2.38;;;2.08;;
5414;SDS011;2730;51.512;7.504;2022-11-15T08:15:26;2.47;;;2.00;;
5414;SDS011;2730;51.512;7.504;2022-11-15T08:17:54;4.68;;;1.67;;
5414;SDS011;2730;51.512;7.504;2022-11-15T08:20:22;2.17;;;1.70;;
5414;SDS011;2730;51.512;7.504;2022-11-15T08:22:49;3.28;;;1.73;;
5414;SDS011;2730;51.512;7.504;2022-11-15T08:25:17;3.08;;;1.90;;
5414;SDS011;2730;51.512;7.504;2022-11-15T08:27:44;1.50;;;1.40;;
5414;SDS011;2730;51.512;7.504;2022-11-15T08:30:11;2.28;;;1.90;;
5414;SDS011;2730;51.512;7.504;2022-11-15T08:32:41;1.90;;;1.60;;
5414;SDS011;2730;51.512;7.504;2022-11-15T08:35:07;3.15;;;1.75;;
5414;SDS011;2730;51.512;7.504;2022-11-15T08:37:34;2.70;;;2.22;;
5414;SDS011;2730;51.512;7.504;2022-11-15T08:40:01;7.93;;;1.98;;
5414;SDS011;2730;51.512;7.504;2022-11-15T08:42:29;3.15;;;2.00;;
5414;SDS011;2730;51.512;7.504;2022-11-15T08:44:56;1.40;;;1.30;;
5414;SDS011;2730;51.512;7.504;2022-11-15T08:47:23;1.48;;;1.38;;
5414;SDS011;2730;51.512;7.504;2022-11-15T08:49:50;1.45;;;1.35;;
5414;SDS011;2730;51.512;7.504;2022-11-15T08:52:17;1.42;;;1.33;;
5414;SDS011;2730;51.512;7.504;2022-11-15T08:54:44;1.48;;;1.38;;
5414;SDS011;2730;51.512;7.504;2022-11-15T08:57:11;4.65;;;1.52;;
5414;SDS011;2730;51.512;7.504;2022-11-15T08:59:39;4.97;;;1.50;;
5414;SDS011;2730;51.512;7.504;2022-11-15T09:02:06;2.22;;;1.58;;
5414;SDS011;2730;51.512;7.504;2022-11-15T09:04:37;1.50;;;1.40;;
5414;SDS011;2730;51.512;7.504;2022-11-15T09:07:05;7.72;;;1.83;;
5414;SDS011;2730;51.512;7.504;2022-11-15T09:09:32;1.77;;;1.55;;
5414;SDS011;2730;51.512;7.504;2022-11-15T09:11:59;2.78;;;1.48;;
5414;SDS011;2730;51.512;7.504;2022-11-15T09:14:26;1.40;;;1.30;;
5414;SDS011;2730;51.512;7.504;2022-11-15T09:16:54;1.50;;;1.40;;
5414;SDS011;2730;51.512;7.504;2022-11-15T09:19:21;1.67;;;1.57;;
5414;SDS011;2730;51.512;7.504;2022-11-15T09:21:48;3.08;;;1.38;;
5414;SDS011;2730;51.512;7.504;2022-11-15T09:24:15;4.97;;;1.50;;
5414;SDS011;2730;51.512;7.504;2022-11-15T09:26:42;4.87;;;1.50;;
5414;SDS011;2730;51.512;7.504;2022-11-15T09:29:09;1.23;;;1.13;;
5414;SDS011;2730;51.512;7.504;2022-11-15T09:31:36;1.40;;;1.17;;
5414;SDS011;2730;51.512;7.504;2022-11-15T09:34:04;2.07;;;1.43;;
5414;SDS011;2730;51.512;7.504;2022-11-15T09:36:31;3.05;;;1.40;;
5414;SDS011;2730;51.512;7.504;2022-11-15T09:38:58;6.53;;;1.30;;
5414;SDS011;2730;51.512;7.504;2022-11-15T09:41:34;2.03;;;1.60;;
5414;SDS011;2730;51.512;7.504;2022-11-15T09:44:32;4.28;;;1.67;;
5414;SDS011;2730;51.512;7.504;2022-11-15T09:47:30;4.82;;;1.20;;
5414;SDS011;2730;51.512;7.504;2022-11-15T09:50:18;1.58;;;1.48;;
5414;SDS011;2730;51.512;7.504;2022-11-15T09:52:53;3.53;;;1.30;;
5414;SDS011;2730;51.512;7.504;2022-11-15T09:55:21;1.10;;;1.00;;
5414;SDS011;2730;51.512;7.504;2022-11-15T09:57:57;1.23;;;1.00;;
5414;SDS011;2730;51.512;7.504;2022-11-15T10:00:44;2.65;;;1.23;;
5414;SDS011;2730;51.512;7.504;2022-11-15T10:03:18;1.60;;;1.47;;
5414;SDS011;2730;51.512;7.504;2022-11-15T10:05:53;1.33;;;1.23;;
5414;SDS011;2730;51.512;7.504;2022-11-15T10:08:35;1.70;;;1.10;;
5414;SDS011;2730;51.512;7.504;2022-11-15T10:11:14;2.20;;;1.10;;
5414;SDS011;2730;51.512;7.504;2022-11-15T10:13:44;2.30;;;1.20;;
5414;SDS011;2730;51.512;7.504;2022-11-15T10:16:21;1.20;;;1.10;;
5414;SDS011;2730;51.512;7.504;2022-11-15T10:19:04;4.13;;;1.27;;
5414;SDS011;2730;51.512;7.504;2022-11-15T10:21:40;1.63;;;1.10;;
5414;SDS011;2730;51.512;7.504;2022-11-15T10:24:17;2.40;;;1.30;;
5414;SDS011;2730;51.512;7.504;2022-11-15T10:26:54;1.40;;;1.23;;
5414;SDS011;2730;51.512;7.504;2022-11-15T10:29:22;2.50;;;0.90;;
5414;SDS011;2730;51.512;7.504;2022-11-15T10:31:51;1.17;;;1.03;;
5414;SDS011;2730;51.512;7.504;2022-11-15T10:34:18;1.37;;;1.20;;
5414;SDS011;2730;51.512;7.504;2022-11-15T10:36:53;1.10;;;1.00;;
5414;SDS011;2730;51.512;7.504;2022-11-15T10:39:21;1.47;;;1.07;;
5414;SDS011;2730;51.512;7.504;2022-11-15T10:41:48;1.80;;;1.27;;
5414;SDS011;2730;51.512;7.504;2022-11-15T10:44:20;1.20;;;1.10;;
5414;SDS011;2730;51.512;7.504;2022-11-15T10:47:03;1.10;;;1.00;;
5414;SDS011;2730;51.512;7.504;2022-11-15T10:49:33;1.67;;;1.00;;
5414;SDS011;2730;51.512;7.504;2022-11-15T10:52:03;1.13;;;1.00;;
5414;SDS011;2730;51.512;7.504;2022-11-15T10:54:40;1.13;;;1.03;;
5414;SDS011;2730;51.512;7.504;2022-11-15T10:57:11;2.80;;;1.10;;
5414;SDS011;2730;51.512;7.504;2022-11-15T10:59:42;1.80;;;1.47;;
5414;SDS011;2730;51.512;7.504;2022-11-15T11:02:26;1.30;;;1.20;;
5414;SDS011;2730;51.512;7.504;2022-11-15T11:04:55;2.70;;;1.23;;
5414;SDS011;2730;51.512;7.504;2022-11-15T11:07:24;4.20;;;1.58;;
5414;SDS011;2730;51.512;7.504;2022-11-15T11:09:59;1.45;;;1.35;;
5414;SDS011;2730;51.512;7.504;2022-11-15T11:12:30;1.55;;;1.38;;
5414;SDS011;2730;51.512;7.504;2022-11-15T11:14:59;2.63;;;1.10;;
5414;SDS011;2730;51.512;7.504;2022-11-15T11:17:33;1.10;;;1.00;;
5414;SDS011;2730;51.512;7.504;2022-11-15T11:20:10;1.17;;;1.08;;
5414;SDS011;2730;51.512;7.504;2022-11-15T11:22:50;1.10;;;1.00;;
5414;SDS011;2730;51.512;7.504;2022-11-15T11:25:29;2.63;;;1.30;;
5414;SDS011;2730;51.512;7.504;2022-11-15T11:28:14;2.03;;;1.25;;
5414;SDS011;2730;51.512;7.504;2022-11-15T11:30:55;4.13;;;1.20;;
5414;SDS011;2730;51.512;7.504;2022-11-15T11:33:31;1.33;;;1.23;;
5414;SDS011;2730;51.512;7.504;2022-11-15T11:36:03;1.52;;;1.25;;
5414;SDS011;2730;51.512;7.504;2022-11-15T11:38:41;1.13;;;1.02;;
5414;SDS011;2730;51.512;7.504;2022-11-15T11:41:18;1.33;;;1.17;;
5414;SDS011;2730;51.512;7.504;2022-11-15T11:43:59;1.27;;;0.93;;
5414;SDS011;2730;51.512;7.504;2022-11-15T11:46:36;5.05;;;1.20;;
5414;SDS011;2730;51.512;7.504;2022-11-15T11:49:15;1.00;;;1.00;;
5414;SDS011;2730;51.512;7.504;2022-11-15T11:51:47;1.02;;;1.02;;
5414;SDS011;2730;51.512;7.504;2022-11-15T11:54:19;1.80;;;1.10;;
5414;SDS011;2730;51.512;7.504;2022-11-15T11:56:49;2.85;;;1.10;;
5414;SDS011;2730;51.512;7.504;2022-11-15T11:59:21;1.90;;;1.30;;
5414;SDS011;2730;51.512;7.504;2022-11-15T12:01:54;1.60;;;1.27;;
5414;SDS011;2730;51.512;7.504;2022-11-15T12:04:24;2.28;;;1.10;;
5414;SDS011;2730;51.512;7.504;2022-11-15T12:06:57;1.58;;;1.30;;
5414;SDS011;2730;51.512;7.504;2022-11-15T12:09:30;2.15;;;0.90;;
5414;SDS011;2730;51.512;7.504;2022-11-15T12:12:01;1.25;;;1.13;;
5414;SDS011;2730;51.512;7.504;2022-11-15T12:14:36;1.90;;;1.10;;
5414;SDS011;2730;51.512;7.504;2022-11-15T12:17:08;1.40;;;1.10;;
5414;SDS011;2730;51.512;7.504;2022-11-15T12:19:37;0.90;;;0.90;;
5414;SDS011;2730;51.512;7.504;2022-11-15T12:22:06;0.90;;;0.90;;
5414;SDS011;2730;51.512;7.504;2022-11-15T12:24:40;1.65;;;1.20;;
5414;SDS011;2730;51.512;7.504;2022-11-15T12:27:14;0.90;;;0.90;;
5414;SDS011;2730;51.512;7.504;2022-11-15T12:29:44;1.23;;;1.13;;
5414;SDS011;2730;51.512;7.504;2022-11-15T12:32:17;1.20;;;1.10;;
5414;SDS011;2730;51.512;7.504;2022-11-15T12:34:51;3.05;;;0.95;;
5414;SDS011;2730;51.512;7.504;2022-11-15T12:40:29;1.27;;;1.08;;
5414;SDS011;2730;51.512;7.504;2022-11-15T12:42:59;3.05;;;1.27;;
5414;SDS011;2730;51.512;7.504;2022-11-15T12:45:32;2.85;;;1.00;;
5414;SDS011;2730;51.512;7.504;2022-11-15T12:51:04;2.00;;;1.30;;
5414;SDS011;2730;51.512;7.504;2022-11-15T12:53:31;3.17;;;1.30;;
5414;SDS011;2730;51.512;7.504;2022-11-15T12:56:17;1.58;;;0.95;;
5414;SDS011;2730;51.512;7.504;2022-11-15T12:58:49;6.32;;;1.30;;
5414;SDS011;2730;51.512;7.504;2022-11-15T13:04:23;3.20;;;1.67;;
5414;SDS011;2730;51.512;7.504;2022-11-15T13:06:52;1.70;;;1.33;;
5414;SDS011;2730;51.512;7.504;2022-11-15T13:21:19;2.95;;;1.40;;
5414;SDS011;2730;51.512;7.504;2022-11-15T13:24:09;1.33;;;1.25;;
5414;SDS011;2730;51.512;7.504;2022-11-15T13:26:38;1.73;;;1.27;;
5414;SDS011;2730;51.512;7.504;2022-11-15T13:29:14;2.90;;;1.30;;
5414;SDS011;2730;51.512;7.504;2022-11-15T13:31:43;2.53;;;1.13;;
5414;SDS011;2730;51.512;7.504;2022-11-15T13:34:16;1.35;;;1.25;;
5414;SDS011;2730;51.512;7.504;2022-11-15T13:36:48;3.77;;;1.33;;
5414;SDS011;2730;51.512;7.504;2022-11-15T13:39:23;1.60;;;1.00;;
5414;SDS011;2730;51.512;7.504;2022-11-15T13:41:53;1.13;;;1.02;;
5414;SDS011;2730;51.512;7.504;2022-11-15T13:44:22;2.33;;;1.30;;
5414;SDS011;2730;51.512;7.504;2022-11-15T13:47:00;3.97;;;1.10;;
5414;SDS011;2730;51.512;7.504;2022-11-15T13:49:28;2.83;;;1.25;;
5414;SDS011;2730;51.512;7.504;2022-11-15T13:51:56;2.28;;;1.23;;
5414;SDS011;2730;51.512;7.504;2022-11-15T13:54:25;1.67;;;1.10;;
5414;SDS011;2730;51.512;7.504;2022-11-15T13:56:55;1.25;;;1.00;;
5414;SDS011;2730;51.512;7.504;2022-11-15T13:59:26;2.90;;;1.00;;
5414;SDS011;2730;51.512;7.504;2022-11-15T14:01:55;3.90;;;1.37;;
5414;SDS011;2730;51.512;7.504;2022-11-15T14:04:25;2.20;;;1.20;;
5414;SDS011;2730;51.512;7.504;2022-11-15T14:06:55;3.70;;;1.75;;
5414;SDS011;2730;51.512;7.504;2022-11-15T14:09:29;8.77;;;1.33;;
5414;SDS011;2730;51.512;7.504;2022-11-15T14:12:26;3.33;;;1.33;;
5414;SDS011;2730;51.512;7.504;2022-11-15T14:14:56;5.30;;;1.25;;
5414;SDS011;2730;51.512;7.504;2022-11-15T14:17:34;2.22;;;1.77;;
5414;SDS011;2730;51.512;7.504;2022-11-15T14:22:50;6.37;;;1.20;;
5414;SDS011;2730;51.512;7.504;2022-11-15T14:25:19;1.50;;;1.40;;
5414;SDS011;2730;51.512;7.504;2022-11-15T14:30:42;2.10;;;1.55;;
5414;SDS011;2730;51.512;7.504;2022-11-15T14:33:20;4.13;;;1.73;;
5414;SDS011;2730;51.512;7.504;2022-11-15T14:35:50;7.03;;;2.47;;
5414;SDS011;2730;51.512;7.504;2022-11-15T14:38:17;4.47;;;2.20;;
5414;SDS011;2730;51.512;7.504;2022-11-15T14:40:44;2.50;;;1.40;;
5414;SDS011;2730;51.512;7.504;2022-11-15T14:43:11;12.75;;;1.73;;
5414;SDS011;2730;51.512;7.504;2022-11-15T14:45:39;6.78;;;1.33;;
5414;SDS011;2730;51.512;7.504;2022-11-15T14:48:07;1.60;;;1.50;;
5414;SDS011;2730;51.512;7.504;2022-11-15T14:50:34;1.43;;;1.33;;
5414;SDS011;2730;51.512;7.504;2022-11-15T14:53:01;2.53;;;1.47;;
5414;SDS011;2730;51.512;7.504;2022-11-15T14:55:30;2.03;;;1.55;;
5414;SDS011;2730;51.512;7.504;2022-11-15T14:58:00;1.05;;;1.05;;
5414;SDS011;2730;51.512;7.504;2022-11-15T15:00:27;1.93;;;1.57;;
5414;SDS011;2730;51.512;7.504;2022-11-15T15:02:55;1.60;;;1.50;;
5414;SDS011;2730;51.512;7.504;2022-11-15T15:05:24;2.08;;;1.80;;
5414;SDS011;2730;51.512;7.504;2022-11-15T15:07:53;5.00;;;1.67;;
5414;SDS011;2730;51.512;7.504;2022-11-15T15:10:20;2.42;;;1.58;;
5414;SDS011;2730;51.512;7.504;2022-11-15T15:12:48;1.60;;;1.30;;
5414;SDS011;2730;51.512;7.504;2022-11-15T15:15:16;3.92;;;1.60;;
5414;SDS011;2730;51.512;7.504;2022-11-15T15:17:45;2.58;;;1.55;;
5414;SDS011;2730;51.512;7.504;2022-11-15T15:20:12;3.20;;;1.80;;
5414;SDS011;2730;51.512;7.504;2022-11-15T15:22:40;2.60;;;2.15;;
5414;SDS011;2730;51.512;7.504;2022-11-15T15:25:20;5.85;;;1.50;;
5414;SDS011;2730;51.512;7.504;2022-11-15T15:27:49;9.38;;;1.60;;
5414;SDS011;2730;51.512;7.504;2022-11-15T15:30:16;9.15;;;1.40;;
5414;SDS011;2730;51.512;7.504;2022-11-15T15:32:43;1.75;;;1.50;;
5414;SDS011;2730;51.512;7.504;2022-11-15T15:35:11;2.20;;;1.45;;
5414;SDS011;2730;51.512;7.504;2022-11-15T15:37:39;4.72;;;1.60;;
5414;SDS011;2730;51.512;7.504;2022-11-15T15:40:10;5.47;;;1.80;;
5414;SDS011;2730;51.512;7.504;2022-11-15T15:42:39;5.03;;;1.90;;
5414;SDS011;2730;51.512;7.504;2022-11-15T15:45:07;4.65;;;1.77;;
5414;SDS011;2730;51.512;7.504;2022-11-15T15:47:34;2.53;;;2.03;;
5414;SDS011;2730;51.512;7.504;2022-11-15T15:50:01;2.95;;;1.90;;
5414;SDS011;2730;51.512;7.504;2022-11-15T15:52:29;4.35;;;2.50;;
5414;SDS011;2730;51.512;7.504;2022-11-15T15:54:57;3.97;;;1.92;;
5414;SDS011;2730;51.512;7.504;2022-11-15T15:57:24;4.43;;;1.48;;
5414;SDS011;2730;51.512;7.504;2022-11-15T15:59:50;1.80;;;1.70;;
5414;SDS011;2730;51.512;7.504;2022-11-15T16:02:17;5.45;;;2.13;;
5414;SDS011;2730;51.512;7.504;2022-11-15T16:04:44;9.10;;;1.90;;
5414;SDS011;2730;51.512;7.504;2022-11-15T16:07:15;2.25;;;1.75;;
5414;SDS011;2730;51.512;7.504;2022-11-15T16:09:43;3.67;;;2.55;;
5414;SDS011;2730;51.512;7.504;2022-11-15T16:12:30;2.95;;;1.80;;
5414;SDS011;2730;51.512;7.504;2022-11-15T16:14:58;2.20;;;2.10;;
5414;SDS011;2730;51.512;7.504;2022-11-15T16:17:26;2.33;;;1.52;;
5414;SDS011;2730;51.512;7.504;2022-11-15T16:19:56;4.80;;;1.55;;
5414;SDS011;2730;51.512;7.504;2022-11-15T16:22:23;2.47;;;1.90;;
5414;SDS011;2730;51.512;7.504;2022-11-15T16:24:50;4.20;;;1.83;;
5414;SDS011;2730;51.512;7.504;2022-11-15T16:27:17;2.17;;;1.98;;
5414;SDS011;2730;51.512;7.504;2022-11-15T16:29:47;2.58;;;2.38;;
5414;SDS011;2730;51.512;7.504;2022-11-15T16:32:14;2.00;;;1.80;;
5414;SDS011;2730;51.512;7.504;2022-11-15T16:34:41;1.58;;;1.48;;
5414;SDS011;2730;51.512;7.504;2022-11-15T16:37:08;2.10;;;1.92;;
5414;SDS011;2730;51.512;7.504;2022-11-15T16:39:47;7.93;;;1.77;;
5414;SDS011;2730;51.512;7.504;2022-11-15T16:42:14;4.20;;;1.67;;
5414;SDS011;2730;51.512;7.504;2022-11-15T16:44:41;2.63;;;2.13;;
5414;SDS011;2730;51.512;7.504;2022-11-15T16:47:13;2.95;;;2.22;;
5414;SDS011;2730;51.512;7.504;2022-11-15T16:49:43;2.70;;;2.50;;
5414;SDS011;2730;51.512;7.504;2022-11-15T16:52:10;2.65;;;1.85;;
5414;SDS011;2730;51.512;7.504;2022-11-15T16:54:37;3.05;;;1.90;;
5414;SDS011;2730;51.512;7.504;2022-11-15T16:57:04;3.47;;;2.45;;
5414;SDS011;2730;51.512;7.504;2022-11-15T16:59:31;5.43;;;4.88;;
5414;SDS011;2730;51.512;7.504;2022-11-15T17:01:58;4.65;;;4.18;;
5414;SDS011;2730;51.512;7.504;2022-11-15T17:04:26;8.07;;;2.17;;
5414;SDS011;2730;51.512;7.504;2022-11-15T17:06:57;1.60;;;1.50;;
5414;SDS011;2730;51.512;7.504;2022-11-15T17:09:25;3.60;;;2.38;;
5414;SDS011;2730;51.512;7.504;2022-11-15T17:11:52;2.10;;;1.88;;
5414;SDS011;2730;51.512;7.504;2022-11-15T17:14:19;2.22;;;2.13;;
5414;SDS011;2730;51.512;7.504;2022-11-15T17:16:46;2.00;;;1.90;;
5414;SDS011;2730;51.512;7.504;2022-11-15T17:19:13;1.70;;;1.60;;
5414;SDS011;2730;51.512;7.504;2022-11-15T17:21:43;2.17;;;1.40;;
5414;SDS011;2730;51.512;7.504;2022-11-15T17:24:11;2.72;;;2.10;;
5414;SDS011;2730;51.512;7.504;2022-11-15T17:26:38;4.85;;;1.90;;
5414;SDS011;2730;51.512;7.504;2022-11-15T17:29:07;2.17;;;1.60;;
5414;SDS011;2730;51.512;7.504;2022-11-15T17:31:33;1.98;;;1.88;;
5414;SDS011;2730;51.512;7.504;2022-11-15T17:34:01;2.15;;;2.05;;
5414;SDS011;2730;51.512;7.504;2022-11-15T17:36:29;2.15;;;1.83;;
5414;SDS011;2730;51.512;7.504;2022-11-15T17:38:57;5.85;;;1.60;;
5414;SDS011;2730;51.512;7.504;2022-11-15T17:41:24;1.92;;;1.48;;
5414;SDS011;2730;51.512;7.504;2022-11-15T17:43:51;1.67;;;1.58;;
5414;SDS011;2730;51.512;7.504;2022-11-15T17:46:19;2.00;;;1.70;;
5414;SDS011;2730;51.512;7.504;2022-11-15T17:48:46;1.70;;;1.60;;
5414;SDS011;2730;51.512;7.504;2022-11-15T17:51:15;1.67;;;1.58;;
5414;SDS011;2730;51.512;7.504;2022-11-15T17:53:43;1.65;;;1.55;;
5414;SDS011;2730;51.512;7.504;2022-11-15T17:56:13;1.63;;;1.52;;
5414;SDS011;2730;51.512;7.504;2022-11-15T17:58:41;1.85;;;1.75;;
5414;SDS011;2730;51.512;7.504;2022-11-15T18:01:14;2.78;;;1.60;;
5414;SDS011;2730;51.512;7.504;2022-11-15T18:03:43;4.30;;;1.70;;
5414;SDS011;2730;51.512;7.504;2022-11-15T18:06:10;4.93;;;1.70;;
5414;SDS011;2730;51.512;7.504;2022-11-15T18:08:37;3.17;;;1.70;;
5414;SDS011;2730;51.512;7.504;2022-11-15T18:11:06;2.55;;;1.77;;
5414;SDS011;2730;51.512;7.504;2022-11-15T18:13:37;4.00;;;1.83;;
5414;SDS011;2730;51.512;7.504;2022-11-15T18:16:05;2.47;;;2.35;;
5414;SDS011;2730;51.512;7.504;2022-11-15T18:18:35;2.58;;;2.38;;
5414;SDS011;2730;51.512;7.504;2022-11-15T18:21:03;4.85;;;1.83;;
5414;SDS011;2730;51.512;7.504;2022-11-15T18:23:30;1.73;;;1.63;;
5414;SDS011;2730;51.512;7.504;2022-11-15T18:25:58;1.90;;;1.58;;
5414;SDS011;2730;51.512;7.504;2022-11-15T18:28:28;3.03;;;2.60;;
5414;SDS011;2730;51.512;7.504;2022-11-15T18:30:58;4.22;;;3.13;;
5414;SDS011;2730;51.512;7.504;2022-11-15T18:33:26;4.85;;;2.60;;
5414;SDS011;2730;51.512;7.504;2022-11-15T18:35:58;2.60;;;2.38;;
5414;SDS011;2730;51.512;7.504;2022-11-15T18:38:26;2.97;;;2.00;;
5414;SDS011;2730;51.512;7.504;2022-11-15T18:40:55;2.63;;;1.92;;
5414;SDS011;2730;51.512;7.504;2022-11-15T18:43:23;3.70;;;2.20;;
5414;SDS011;2730;51.512;7.504;2022-11-15T18:45:51;2.30;;;2.10;;
5414;SDS011;2730;51.512;7.504;2022-11-15T18:48:19;5.88;;;2.00;;
5414;SDS011;2730;51.512;7.504;2022-11-15T18:50:46;2.17;;;2.08;;
5414;SDS011;2730;51.512;7.504;2022-11-15T18:53:14;2.80;;;2.20;;
5414;SDS011;2730;51.512;7.504;2022-11-15T18:55:41;3.60;;;1.92;;
5414;SDS011;2730;51.512;7.504;2022-11-15T18:58:08;1.70;;;1.60;;
5414;SDS011;2730;51.512;7.504;2022-11-15T19:00:35;2.25;;;2.05;;
5414;SDS011;2730;51.512;7.504;2022-11-15T19:03:02;2.45;;;2.00;;
5414;SDS011;2730;51.512;7.504;2022-11-15T19:05:30;1.92;;;1.83;;
5414;SDS011;2730;51.512;7.504;2022-11-15T19:07:59;2.22;;;2.13;;
5414;SDS011;2730;51.512;7.504;2022-11-15T19:10:26;2.05;;;1.88;;
5414;SDS011;2730;51.512;7.504;2022-11-15T19:12:53;3.63;;;2.40;;
5414;SDS011;2730;51.512;7.504;2022-11-15T19:15:20;5.53;;;1.95;;
5414;SDS011;2730;51.512;7.504;2022-11-15T19:17:47;2.00;;;1.90;;
5414;SDS011;2730;51.512;7.504;2022-11-15T19:20:14;2.40;;;2.00;;
5414;SDS011;2730;51.512;7.504;2022-11-15T19:22:43;2.30;;;2.10;;
5414;SDS011;2730;51.512;7.504;2022-11-15T19:25:09;2.35;;;2.25;;
5414;SDS011;2730;51.512;7.504;2022-11-15T19:27:36;2.13;;;2.03;;
5414;SDS011;2730;51.512;7.504;2022-11-15T19:30:04;1.90;;;1.80;;
5414;SDS011;2730;51.512;7.504;2022-11-15T19:32:31;2.25;;;2.05;;
5414;SDS011;2730;51.512;7.504;2022-11-15T19:34:58;2.55;;;2.13;;
5414;SDS011;2730;51.512;7.504;2022-11-15T19:37:25;2.50;;;2.30;;
5414;SDS011;2730;51.512;7.504;2022-11-15T19:39:53;3.65;;;2.97;;
5414;SDS011;2730;51.512;7.504;2022-11-15T19:42:20;12.30;;;3.90;;
5414;SDS011;2730;51.512;7.504;2022-11-15T19:44:47;6.55;;;2.50;;
5414;SDS011;2730;51.512;7.504;2022-11-15T19:47:14;3.92;;;2.45;;
5414;SDS011;2730;51.512;7.504;2022-11-15T19:49:41;3.60;;;3.08;;
5414;SDS011;2730;51.512;7.504;2022-11-15T19:52:10;2.95;;;2.65;;
5414;SDS011;2730;51.512;7.504;2022-11-15T19:54:37;3.50;;;2.90;;
5414;SDS011;2730;51.512;7.504;2022-11-15T19:57:05;3.00;;;2.70;;
5414;SDS011;2730;51.512;7.504;2022-11-15T19:59:32;4.28;;;2.70;;
5414;SDS011;2730;51.512;7.504;2022-11-15T20:01:59;4.57;;;2.70;;
5414;SDS011;2730;51.512;7.504;2022-11-15T20:04:26;3.47;;;2.97;;
5414;SDS011;2730;51.512;7.504;2022-11-15T20:06:53;3.42;;;3.05;;
5414;SDS011;2730;51.512;7.504;2022-11-15T20:09:19;5.20;;;2.90;;
5414;SDS011;2730;51.512;7.504;2022-11-15T20:11:46;3.72;;;2.70;;
5414;SDS011;2730;51.512;7.504;2022-11-15T20:14:14;2.75;;;2.50;;
5414;SDS011;2730;51.512;7.504;2022-11-15T20:16:41;3.33;;;2.75;;
5414;SDS011;2730;51.512;7.504;2022-11-15T20:19:08;2.70;;;2.50;;
5414;SDS011;2730;51.512;7.504;2022-11-15T20:21:36;3.35;;;2.95;;
5414;SDS011;2730;51.512;7.504;2022-11-15T20:24:03;3.30;;;2.35;;
5414;SDS011;2730;51.512;7.504;2022-11-15T20:26:31;2.42;;;2.28;;
5414;SDS011;2730;51.512;7.504;2022-11-15T20:28:59;3.05;;;2.03;;
5414;SDS011;2730;51.512;7.504;2022-11-15T20:31:29;2.92;;;2.53;;
5414;SDS011;2730;51.512;7.504;2022-11-15T20:33:56;2.00;;;1.90;;
5414;SDS011;2730;51.512;7.504;2022-11-15T20:36:24;2.92;;;2.63;;
5414;SDS011;2730;51.512;7.504;2022-11-15T20:38:50;3.03;;;2.60;;
5414;SDS011;2730;51.512;7.504;2022-11-15T20:41:21;5.28;;;2.97;;
5414;SDS011;2730;51.512;7.504;2022-11-15T20:43:48;2.13;;;1.92;;
5414;SDS011;2730;51.512;7.504;2022-11-15T20:46:15;2.55;;;1.88;;
5414;SDS011;2730;51.512;7.504;2022-11-15T20:48:45;2.30;;;2.10;;
5414;SDS011;2730;51.512;7.504;2022-11-15T20:51:13;2.85;;;2.00;;
5414;SDS011;2730;51.512;7.504;2022-11-15T20:53:41;2.30;;;2.08;;
5414;SDS011;2730;51.512;7.504;2022-11-15T20:56:10;2.30;;;2.20;;
5414;SDS011;2730;51.512;7.504;2022-11-15T20:58:39;2.03;;;1.88;;
5414;SDS011;2730;51.512;7.504;2022-11-15T21:01:08;2.60;;;1.90;;
5414;SDS011;2730;51.512;7.504;2022-11-15T21:03:37;2.75;;;1.90;;
5414;SDS011;2730;51.512;7.504;2022-11-15T21:06:06;2.30;;;1.73;;
5414;SDS011;2730;51.512;7.504;2022-11-15T21:08:33;3.50;;;2.00;;
5414;SDS011;2730;51.512;7.504;2022-11-15T21:11:14;2.00;;;1.90;;
5414;SDS011;2730;51.512;7.504;2022-11-15T21:13:58;2.80;;;2.00;;
5414;SDS011;2730;51.512;7.504;2022-11-15T21:16:25;2.38;;;2.08;;
5414;SDS011;2730;51.512;7.504;2022-11-15T21:18:51;2.13;;;2.03;;
5414;SDS011;2730;51.512;7.504;2022-11-15T21:21:20;2.08;;;1.75;;
5414;SDS011;2730;51.512;7.504;2022-11-15T21:23:47;2.00;;;1.80;;
5414;SDS011;2730;51.512;7.504;2022-11-15T21:26:14;2.30;;;2.10;;
5414;SDS011;2730;51.512;7.504;2022-11-15T21:28:40;4.70;;;2.53;;